sensor_id;sensor_type;location;lat;lon;timestamp;pressure;altitude;pressure_sealevel;temperature;humidity
70370;BME280;57790;51.356;-2.906;2023-02-18T00:01:46;102586.47;;;11.84;100.00
70370;BME280;57790;51.356;-2.906;2023-02-18T00:04:46;102573.94;;;11.86;100.00
70370;BME280;57790;51.356;-2.906;2023-02-18T00:07:47;102572.59;;;11.81;100.00
70370;BME280;57790;51.356;-2.906;2023-02-18T00:10:47;102574.78;;;11.76;100.00
70370;BME280;57790;51.356;-2.906;2023-02-18T00:13:50;102574.19;;;11.72;100.00
70370;BME280;57790;51.356;-2.906;2023-02-18T00:16:50;102574.19;;;11.72;100.00
70370;BME280;57790;51.356;-2.906;2023-02-18T00:19:51;102575.88;;;11.73;100.00
70370;BME280;57790;51.356;-2.906;2023-02-18T00:22:51;102580.34;;;11.73;100.00
70370;BME280;57790;51.356;-2.906;2023-02-18T00:26:00;102580.44;;;11.71;100.00
70370;BME280;57790;51.356;-2.906;2023-02-18T00:29:00;102579.00;;;11.67;100.00
70370;BME280;57790;51.356;-2.906;2023-02-18T00:32:01;102572.97;;;11.65;100.00
70370;BME280;57790;51.356;-2.906;2023-02-18T00:35:02;102597.00;;;11.63;100.00
70370;BME280;57790;51.356;-2.906;2023-02-18T00:38:03;102597.00;;;11.63;100.00
70370;BME280;57790;51.356;-2.906;2023-02-18T00:41:04;102586.63;;;11.60;100.00
70370;BME280;57790;51.356;-2.906;2023-02-18T00:44:05;102593.75;;;11.60;100.00
70370;BME280;57790;51.356;-2.906;2023-02-18T00:47:05;102597.25;;;11.60;100.00
70370;BME280;57790;51.356;-2.906;2023-02-18T00:50:07;102595.81;;;11.56;100.00
70370;BME280;57790;51.356;-2.906;2023-02-18T00:53:07;102600.91;;;11.59;100.00
70370;BME280;57790;51.356;-2.906;2023-02-18T00:56:08;102590.38;;;11.58;100.00
70370;BME280;57790;51.356;-2.906;2023-02-18T00:59:08;102586.88;;;11.57;100.00
70370;BME280;57790;51.356;-2.906;2023-02-18T01:02:09;102576.38;;;11.56;100.00
70370;BME280;57790;51.356;-2.906;2023-02-18T01:05:10;102581.69;;;11.56;100.00
70370;BME280;57790;51.356;-2.906;2023-02-18T01:08:11;102580.97;;;11.54;100.00
70370;BME280;57790;51.356;-2.906;2023-02-18T01:11:12;102587.25;;;11.53;100.00
70370;BME280;57790;51.356;-2.906;2023-02-18T01:14:12;102582.78;;;11.53;100.00
70370;BME280;57790;51.356;-2.906;2023-02-18T01:17:12;102586.66;;;11.49;100.00
70370;BME280;57790;51.356;-2.906;2023-02-18T01:20:14;102582.06;;;11.51;100.00
70370;BME280;57790;51.356;-2.906;2023-02-18T01:23:14;102587.84;;;11.56;100.00
70370;BME280;57790;51.356;-2.906;2023-02-18T01:26:15;102596.31;;;11.50;100.00
70370;BME280;57790;51.356;-2.906;2023-02-18T01:29:16;102592.81;;;11.50;100.00
70370;BME280;57790;51.356;-2.906;2023-02-18T01:32:16;102598.13;;;11.50;100.00
70370;BME280;57790;51.356;-2.906;2023-02-18T01:35:18;102593.91;;;11.47;100.00
70370;BME280;57790;51.356;-2.906;2023-02-18T01:38:19;102579.06;;;11.45;100.00
70370;BME280;57790;51.356;-2.906;2023-02-18T01:41:20;102574.81;;;11.42;100.00
70370;BME280;57790;51.356;-2.906;2023-02-18T01:44:23;102569.41;;;11.44;100.00
70370;BME280;57790;51.356;-2.906;2023-02-18T01:47:25;102551.88;;;11.41;100.00
70370;BME280;57790;51.356;-2.906;2023-02-18T01:50:26;102550.91;;;11.42;100.00
70370;BME280;57790;51.356;-2.906;2023-02-18T01:53:32;102549.22;;;11.41;100.00
70370;BME280;57790;51.356;-2.906;2023-02-18T01:59:56;102545.00;;;11.39;100.00
70370;BME280;57790;51.356;-2.906;2023-02-18T02:02:57;102547.53;;;11.40;100.00
70370;BME280;57790;51.356;-2.906;2023-02-18T02:05:58;102543.06;;;11.41;100.00
70370;BME280;57790;51.356;-2.906;2023-02-18T02:09:01;102540.41;;;11.41;100.00
70370;BME280;57790;51.356;-2.906;2023-02-18T02:36:15;102504.91;;;11.42;100.00
70370;BME280;57790;51.356;-2.906;2023-02-18T02:49:35;102492.75;;;11.39;100.00
70370;BME280;57790;51.356;-2.906;2023-02-18T02:52:41;102485.50;;;11.41;100.00
70370;BME280;57790;51.356;-2.906;2023-02-18T02:55:44;102477.53;;;11.41;100.00
70370;BME280;57790;51.356;-2.906;2023-02-18T02:58:46;102479.97;;;11.44;100.00
70370;BME280;57790;51.356;-2.906;2023-02-18T03:08:32;102465.22;;;11.40;100.00
70370;BME280;57790;51.356;-2.906;2023-02-18T03:15:31;102471.25;;;11.42;100.00
70370;BME280;57790;51.356;-2.906;2023-02-18T03:18:39;102470.41;;;11.42;100.00
70370;BME280;57790;51.356;-2.906;2023-02-18T03:24:51;102457.25;;;11.40;100.00
70370;BME280;57790;51.356;-2.906;2023-02-18T03:28:07;102453.63;;;11.41;100.00
70370;BME280;57790;51.356;-2.906;2023-02-18T03:31:15;102456.28;;;11.41;100.00
70370;BME280;57790;51.356;-2.906;2023-02-18T03:34:29;102449.16;;;11.42;100.00
70370;BME280;57790;51.356;-2.906;2023-02-18T03:37:31;102447.34;;;11.42;100.00
70370;BME280;57790;51.356;-2.906;2023-02-18T03:40:35;102460.63;;;11.42;100.00
70370;BME280;57790;51.356;-2.906;2023-02-18T03:43:35;102448.19;;;11.43;100.00
70370;BME280;57790;51.356;-2.906;2023-02-18T03:46:38;102445.66;;;11.41;100.00
70370;BME280;57790;51.356;-2.906;2023-02-18T03:49:39;102433.22;;;11.42;100.00
70370;BME280;57790;51.356;-2.906;2023-02-18T03:52:39;102429.59;;;11.43;100.00
70370;BME280;57790;51.356;-2.906;2023-02-18T03:55:39;102426.00;;;11.44;100.00
70370;BME280;57790;51.356;-2.906;2023-02-18T03:58:40;102426.09;;;11.42;100.00
70370;BME280;57790;51.356;-2.906;2023-02-18T04:01:40;102422.38;;;11.45;100.00
70370;BME280;57790;51.356;-2.906;2023-02-18T04:04:41;102428.53;;;11.45;100.00
70370;BME280;57790;51.356;-2.906;2023-02-18T04:07:41;102422.50;;;11.43;100.00
70370;BME280;57790;51.356;-2.906;2023-02-18T04:10:41;102421.53;;;11.44;100.00
70370;BME280;57790;51.356;-2.906;2023-02-18T04:13:42;102414.41;;;11.45;100.00
70370;BME280;57790;51.356;-2.906;2023-02-18T04:16:42;102420.56;;;11.45;100.00
70370;BME280;57790;51.356;-2.906;2023-02-18T04:19:43;102425.03;;;11.45;100.00
70370;BME280;57790;51.356;-2.906;2023-02-18T04:22:43;102423.94;;;11.47;100.00
70370;BME280;57790;51.356;-2.906;2023-02-18T04:25:43;102422.13;;;11.48;100.00
70370;BME280;57790;51.356;-2.906;2023-02-18T04:28:44;102424.06;;;11.46;100.00
70370;BME280;57790;51.356;-2.906;2023-02-18T04:31:44;102427.69;;;11.45;100.00
70370;BME280;57790;51.356;-2.906;2023-02-18T04:34:45;102429.25;;;11.47;100.00
70370;BME280;57790;51.356;-2.906;2023-02-18T04:37:45;102418.47;;;11.49;100.00
70370;BME280;57790;51.356;-2.906;2023-02-18T04:40:46;102420.03;;;11.51;100.00
70370;BME280;57790;51.356;-2.906;2023-02-18T04:43:46;102423.66;;;11.50;100.00
70370;BME280;57790;51.356;-2.906;2023-02-18T04:46:46;102421.28;;;11.47;100.00
70370;BME280;57790;51.356;-2.906;2023-02-18T04:49:47;102417.38;;;11.51;100.00
70370;BME280;57790;51.356;-2.906;2023-02-18T04:52:48;102416.81;;;11.48;100.00
70370;BME280;57790;51.356;-2.906;2023-02-18T04:55:49;102429.81;;;11.51;100.00
70370;BME280;57790;51.356;-2.906;2023-02-18T04:58:50;102424.50;;;11.51;100.00
70370;BME280;57790;51.356;-2.906;2023-02-18T05:01:51;102428.72;;;11.53;100.00
70370;BME280;57790;51.356;-2.906;2023-02-18T05:04:51;102434.28;;;11.50;100.00
70370;BME280;57790;51.356;-2.906;2023-02-18T05:07:52;102432.59;;;11.49;100.00
70370;BME280;57790;51.356;-2.906;2023-02-18T05:10:52;102429.09;;;11.49;100.00
70370;BME280;57790;51.356;-2.906;2023-02-18T05:13:53;102433.56;;;11.48;100.00
70370;BME280;57790;51.356;-2.906;2023-02-18T05:16:53;102437.06;;;11.49;100.00
70370;BME280;57790;51.356;-2.906;2023-02-18T05:19:53;102440.56;;;11.49;100.00
70370;BME280;57790;51.356;-2.906;2023-02-18T05:22:54;102433.44;;;11.50;100.00
70370;BME280;57790;51.356;-2.906;2023-02-18T05:25:54;102426.19;;;11.52;100.00
70370;BME280;57790;51.356;-2.906;2023-02-18T05:28:55;102429.81;;;11.51;100.00
70370;BME280;57790;51.356;-2.906;2023-02-18T05:31:56;102422.22;;;11.57;100.00
70370;BME280;57790;51.356;-2.906;2023-02-18T05:34:56;102427.50;;;11.57;100.00
70370;BME280;57790;51.356;-2.906;2023-02-18T05:37:57;102424.13;;;11.55;100.00
70370;BME280;57790;51.356;-2.906;2023-02-18T05:40:57;102417.13;;;11.54;100.00
70370;BME280;57790;51.356;-2.906;2023-02-18T05:43:58;102416.16;;;11.55;100.00
70370;BME280;57790;51.356;-2.906;2023-02-18T05:47:17;102417.59;;;11.59;100.00
70370;BME280;57790;51.356;-2.906;2023-02-18T05:50:17;102424.97;;;11.56;100.00
70370;BME280;57790;51.356;-2.906;2023-02-18T05:53:18;102414.59;;;11.53;100.00
70370;BME280;57790;51.356;-2.906;2023-02-18T05:56:18;102415.31;;;11.55;100.00
70370;BME280;57790;51.356;-2.906;2023-02-18T05:59:19;102416.28;;;11.54;100.00
70370;BME280;57790;51.356;-2.906;2023-02-18T06:02:20;102414.47;;;11.54;100.00
70370;BME280;57790;51.356;-2.906;2023-02-18T06:05:20;102410.97;;;11.54;100.00
70370;BME280;57790;51.356;-2.906;2023-02-18T06:08:20;102410.97;;;11.54;100.00
70370;BME280;57790;51.356;-2.906;2023-02-18T06:11:21;102411.69;;;11.56;100.00
70370;BME280;57790;51.356;-2.906;2023-02-18T06:14:21;102404.31;;;11.59;100.00
70370;BME280;57790;51.356;-2.906;2023-02-18T06:17:22;102396.47;;;11.58;100.00
70370;BME280;57790;51.356;-2.906;2023-02-18T06:20:22;102401.41;;;11.62;100.00
70370;BME280;57790;51.356;-2.906;2023-02-18T06:23:22;102411.91;;;11.64;100.00
70370;BME280;57790;51.356;-2.906;2023-02-18T06:26:23;102407.69;;;11.61;100.00
70370;BME280;57790;51.356;-2.906;2023-02-18T06:29:24;102399.72;;;11.61;100.00
70370;BME280;57790;51.356;-2.906;2023-02-18T06:32:24;102401.53;;;11.61;100.00
70370;BME280;57790;51.356;-2.906;2023-02-18T06:35:24;102394.97;;;11.65;100.00
70370;BME280;57790;51.356;-2.906;2023-02-18T06:38:25;102391.63;;;11.63;100.00
70370;BME280;57790;51.356;-2.906;2023-02-18T06:41:26;102396.34;;;11.59;100.00
70370;BME280;57790;51.356;-2.906;2023-02-18T06:44:26;102402.38;;;11.61;100.00
70370;BME280;57790;51.356;-2.906;2023-02-18T06:47:26;102397.19;;;11.60;100.00
70370;BME280;57790;51.356;-2.906;2023-02-18T06:50:27;102402.63;;;11.58;100.00
70370;BME280;57790;51.356;-2.906;2023-02-18T06:53:27;102409.63;;;11.59;100.00
70370;BME280;57790;51.356;-2.906;2023-02-18T06:56:28;102409.63;;;11.59;100.00
70370;BME280;57790;51.356;-2.906;2023-02-18T06:59:28;102410.47;;;11.60;100.00
70370;BME280;57790;51.356;-2.906;2023-02-18T07:02:29;102415.66;;;11.61;100.00
70370;BME280;57790;51.356;-2.906;2023-02-18T07:05:29;102411.44;;;11.59;100.00
70370;BME280;57790;51.356;-2.906;2023-02-18T07:08:30;102414.94;;;11.59;100.00
70370;BME280;57790;51.356;-2.906;2023-02-18T07:11:32;102411.44;;;11.59;100.00
70370;BME280;57790;51.356;-2.906;2023-02-18T07:14:32;102413.25;;;11.58;100.00
70370;BME280;57790;51.356;-2.906;2023-02-18T07:17:33;102401.66;;;11.59;100.00
70370;BME280;57790;51.356;-2.906;2023-02-18T07:20:33;102406.00;;;11.60;100.00
70370;BME280;57790;51.356;-2.906;2023-02-18T07:23:34;102394.41;;;11.61;100.00
70370;BME280;57790;51.356;-2.906;2023-02-18T07:26:34;102395.38;;;11.60;100.00
70370;BME280;57790;51.356;-2.906;2023-02-18T07:29:35;102400.56;;;11.62;100.00
70370;BME280;57790;51.356;-2.906;2023-02-18T07:32:35;102414.09;;;11.59;100.00
70370;BME280;57790;51.356;-2.906;2023-02-18T07:35:35;102413.13;;;11.60;100.00
70370;BME280;57790;51.356;-2.906;2023-02-18T07:38:36;102423.75;;;11.60;100.00
70370;BME280;57790;51.356;-2.906;2023-02-18T07:41:36;102417.59;;;11.59;100.00
70370;BME280;57790;51.356;-2.906;2023-02-18T07:44:37;102423.88;;;11.58;100.00
70370;BME280;57790;51.356;-2.906;2023-02-18T07:47:38;102425.94;;;11.55;100.00
70370;BME280;57790;51.356;-2.906;2023-02-18T07:50:43;102428.47;;;11.56;100.00
70370;BME280;57790;51.356;-2.906;2023-02-18T07:53:44;102439.09;;;11.56;100.00
70370;BME280;57790;51.356;-2.906;2023-02-18T07:56:44;102440.81;;;11.57;100.00
70370;BME280;57790;51.356;-2.906;2023-02-18T07:59:45;102450.81;;;11.54;100.00
70370;BME280;57790;51.356;-2.906;2023-02-18T08:02:45;102444.53;;;11.55;100.00
70370;BME280;57790;51.356;-2.906;2023-02-18T08:05:50;102447.19;;;11.55;100.00
70370;BME280;57790;51.356;-2.906;2023-02-18T08:08:50;102443.56;;;11.56;100.00
70370;BME280;57790;51.356;-2.906;2023-02-18T08:11:51;102450.44;;;11.58;100.00
70370;BME280;57790;51.356;-2.906;2023-02-18T08:14:51;102449.59;;;11.58;100.00
70370;BME280;57790;51.356;-2.906;2023-02-18T08:17:52;102447.78;;;11.58;100.00
70370;BME280;57790;51.356;-2.906;2023-02-18T08:20:52;102458.16;;;11.61;100.00
70370;BME280;57790;51.356;-2.906;2023-02-18T08:23:53;102452.25;;;11.58;100.00
70370;BME280;57790;51.356;-2.906;2023-02-18T08:26:53;102463.59;;;11.60;100.00
70370;BME280;57790;51.356;-2.906;2023-02-18T08:29:54;102464.44;;;11.60;100.00
70370;BME280;57790;51.356;-2.906;2023-02-18T08:32:55;102467.09;;;11.60;100.00
70370;BME280;57790;51.356;-2.906;2023-02-18T08:35:55;102473.38;;;11.59;100.00
70370;BME280;57790;51.356;-2.906;2023-02-18T08:38:57;102469.03;;;11.58;100.00
70370;BME280;57790;51.356;-2.906;2023-02-18T08:41:57;102470.59;;;11.61;100.00
70370;BME280;57790;51.356;-2.906;2023-02-18T08:44:57;102474.22;;;11.60;100.00
70370;BME280;57790;51.356;-2.906;2023-02-18T08:47:58;102466.13;;;11.61;100.00
70370;BME280;57790;51.356;-2.906;2023-02-18T08:51:14;102469.50;;;11.63;100.00
70370;BME280;57790;51.356;-2.906;2023-02-18T08:54:16;102477.47;;;11.63;100.00
70370;BME280;57790;51.356;-2.906;2023-02-18T08:57:16;102482.06;;;11.61;100.00
70370;BME280;57790;51.356;-2.906;2023-02-18T09:00:17;102480.13;;;11.63;100.00
70370;BME280;57790;51.356;-2.906;2023-02-18T09:03:18;102475.53;;;11.66;100.00
70370;BME280;57790;51.356;-2.906;2023-02-18T09:06:18;102477.22;;;11.67;100.00
70370;BME280;57790;51.356;-2.906;2023-02-18T09:09:19;102478.88;;;11.68;100.00
70370;BME280;57790;51.356;-2.906;2023-02-18T09:12:19;102480.56;;;11.69;100.00
70370;BME280;57790;51.356;-2.906;2023-02-18T09:15:19;102482.38;;;11.68;100.00
70370;BME280;57790;51.356;-2.906;2023-02-18T09:18:20;102484.91;;;11.70;100.00
70370;BME280;57790;51.356;-2.906;2023-02-18T09:21:21;102482.38;;;11.68;100.00
70370;BME280;57790;51.356;-2.906;2023-02-18T09:24:23;102490.00;;;11.73;100.00
70370;BME280;57790;51.356;-2.906;2023-02-18T09:27:24;102478.28;;;11.75;100.00
70370;BME280;57790;51.356;-2.906;2023-02-18T09:30:27;102480.22;;;11.73;100.00
70370;BME280;57790;51.356;-2.906;2023-02-18T09:33:27;102476.59;;;11.74;100.00
70370;BME280;57790;51.356;-2.906;2023-02-18T09:36:28;102481.63;;;11.77;100.00
70370;BME280;57790;51.356;-2.906;2023-02-18T09:39:29;102479.72;;;11.79;100.00
70370;BME280;57790;51.356;-2.906;2023-02-18T09:42:31;102485.88;;;11.80;100.00
70370;BME280;57790;51.356;-2.906;2023-02-18T09:45:33;102475.47;;;11.77;100.00
70370;BME280;57790;51.356;-2.906;2023-02-18T09:48:35;102473.44;;;11.80;100.00
70370;BME280;57790;51.356;-2.906;2023-02-18T09:51:36;102469.41;;;11.86;100.00
70370;BME280;57790;51.356;-2.906;2023-02-18T09:54:37;102480.03;;;11.86;100.00
70370;BME280;57790;51.356;-2.906;2023-02-18T09:57:44;102474.63;;;11.87;100.00
70370;BME280;57790;51.356;-2.906;2023-02-18T10:00:52;102483.69;;;11.85;100.00
70370;BME280;57790;51.356;-2.906;2023-02-18T10:03:55;102486.47;;;11.83;100.00
70370;BME280;57790;51.356;-2.906;2023-02-18T10:06:58;102482.97;;;11.83;100.00
70370;BME280;57790;51.356;-2.906;2023-02-18T10:10:04;102478.50;;;11.83;100.00
70370;BME280;57790;51.356;-2.906;2023-02-18T10:13:20;102473.88;;;11.85;100.00
70370;BME280;57790;51.356;-2.906;2023-02-18T10:16:22;102467.25;;;11.91;100.00
70370;BME280;57790;51.356;-2.906;2023-02-18T10:19:31;102480.66;;;11.89;100.00
70370;BME280;57790;51.356;-2.906;2023-02-18T10:22:33;102485.84;;;11.91;100.00
70370;BME280;57790;51.356;-2.906;2023-02-18T10:25:44;102486.81;;;11.90;100.00
70370;BME280;57790;51.356;-2.906;2023-02-18T10:28:45;102481.50;;;11.90;100.00
70370;BME280;57790;51.356;-2.906;2023-02-18T10:32:15;102484.88;;;11.92;100.00
70370;BME280;57790;51.356;-2.906;2023-02-18T10:35:24;102472.56;;;11.91;100.00
70370;BME280;57790;51.356;-2.906;2023-02-18T10:51:49;102475.53;;;11.98;100.00
70370;BME280;57790;51.356;-2.906;2023-02-18T10:55:02;102480.97;;;11.96;100.00
70370;BME280;57790;51.356;-2.906;2023-02-18T10:58:29;102484.34;;;11.98;100.00
70370;BME280;57790;51.356;-2.906;2023-02-18T11:01:30;102488.59;;;12.01;100.00
70370;BME280;57790;51.356;-2.906;2023-02-18T11:04:37;102495.09;;;11.97;100.00
70370;BME280;57790;51.356;-2.906;2023-02-18T11:07:38;102499.22;;;12.01;100.00
70370;BME280;57790;51.356;-2.906;2023-02-18T11:10:41;102489.44;;;12.01;100.00
70370;BME280;57790;51.356;-2.906;2023-02-18T11:13:42;102490.97;;;12.04;100.00
70370;BME280;57790;51.356;-2.906;2023-02-18T11:16:45;102489.88;;;12.06;100.00
70370;BME280;57790;51.356;-2.906;2023-02-18T11:19:55;102482.75;;;12.07;100.00
70370;BME280;57790;51.356;-2.906;2023-02-18T11:26:10;102484.41;;;12.08;100.00
70370;BME280;57790;51.356;-2.906;2023-02-18T11:29:21;102470.41;;;12.06;100.00
70370;BME280;57790;51.356;-2.906;2023-02-18T11:32:26;102483.59;;;12.07;100.00
70370;BME280;57790;51.356;-2.906;2023-02-18T11:35:29;102476.97;;;12.02;100.00
70370;BME280;57790;51.356;-2.906;2023-02-18T11:38:37;102490.13;;;12.03;100.00
70370;BME280;57790;51.356;-2.906;2023-02-18T11:41:41;102479.50;;;12.03;100.00
70370;BME280;57790;51.356;-2.906;2023-02-18T11:44:57;102472.25;;;12.05;100.00
70370;BME280;57790;51.356;-2.906;2023-02-18T11:51:19;102468.34;;;12.09;100.00
70370;BME280;57790;51.356;-2.906;2023-02-18T11:54:30;102457.56;;;12.11;100.00
70370;BME280;57790;51.356;-2.906;2023-02-18T11:57:33;102459.25;;;12.12;100.00
70370;BME280;57790;51.356;-2.906;2023-02-18T12:00:41;102460.94;;;12.13;100.00
70370;BME280;57790;51.356;-2.906;2023-02-18T12:03:59;102460.94;;;12.13;100.00
70370;BME280;57790;51.356;-2.906;2023-02-18T12:10:14;102461.91;;;12.12;100.00
70370;BME280;57790;51.356;-2.906;2023-02-18T12:13:26;102466.97;;;12.15;100.00
70370;BME280;57790;51.356;-2.906;2023-02-18T12:23:24;102462.38;;;12.17;100.00
70370;BME280;57790;51.356;-2.906;2023-02-18T12:26:28;102462.38;;;12.17;100.00
70370;BME280;57790;51.356;-2.906;2023-02-18T12:39:32;102454.72;;;12.24;100.00
70370;BME280;57790;51.356;-2.906;2023-02-18T12:42:59;102444.22;;;12.22;100.00
70370;BME280;57790;51.356;-2.906;2023-02-18T12:52:37;102436.38;;;12.20;100.00
70370;BME280;57790;51.356;-2.906;2023-02-18T12:56:07;102444.78;;;12.26;100.00
70370;BME280;57790;51.356;-2.906;2023-02-18T13:12:06;102434.47;;;12.32;100.00
70370;BME280;57790;51.356;-2.906;2023-02-18T13:18:36;102426.38;;;12.34;100.00
70370;BME280;57790;51.356;-2.906;2023-02-18T13:21:39;102427.78;;;12.38;100.00
70370;BME280;57790;51.356;-2.906;2023-02-18T13:24:44;102421.34;;;12.40;100.00
70370;BME280;57790;51.356;-2.906;2023-02-18T13:27:57;102426.81;;;12.39;100.00
70370;BME280;57790;51.356;-2.906;2023-02-18T13:40:20;102441.72;;;12.51;100.00
70370;BME280;57790;51.356;-2.906;2023-02-18T13:43:34;102442.41;;;12.53;100.00
70370;BME280;57790;51.356;-2.906;2023-02-18T13:49:47;102428.13;;;12.54;100.00
70370;BME280;57790;51.356;-2.906;2023-02-18T13:52:49;102426.44;;;12.53;100.00
70370;BME280;57790;51.356;-2.906;2023-02-18T13:56:00;102427.44;;;12.52;100.00
70370;BME280;57790;51.356;-2.906;2023-02-18T13:59:09;102409.25;;;12.57;100.00
70370;BME280;57790;51.356;-2.906;2023-02-18T14:05:23;102412.75;;;12.58;100.00
70370;BME280;57790;51.356;-2.906;2023-02-18T14:08:33;102416.66;;;12.54;100.00
70370;BME280;57790;51.356;-2.906;2023-02-18T14:11:55;102411.06;;;12.57;100.00
70370;BME280;57790;51.356;-2.906;2023-02-18T14:14:57;102416.25;;;12.58;100.00
70370;BME280;57790;51.356;-2.906;2023-02-18T14:24:46;102403.53;;;12.62;100.00
70370;BME280;57790;51.356;-2.906;2023-02-18T14:27:52;102410.56;;;12.72;100.00
70370;BME280;57790;51.356;-2.906;2023-02-18T14:30:52;102400.47;;;12.66;100.00
70370;BME280;57790;51.356;-2.906;2023-02-18T14:37:28;102395.41;;;12.63;100.00
70370;BME280;57790;51.356;-2.906;2023-02-18T14:50:50;102385.63;;;12.64;100.00
70370;BME280;57790;51.356;-2.906;2023-02-18T14:53:52;102389.81;;;12.66;100.00
70370;BME280;57790;51.356;-2.906;2023-02-18T14:57:02;102390.09;;;12.63;100.00
70370;BME280;57790;51.356;-2.906;2023-02-18T15:00:05;102383.47;;;12.58;100.00
70370;BME280;57790;51.356;-2.906;2023-02-18T15:03:19;102391.22;;;12.61;100.00
70370;BME280;57790;51.356;-2.906;2023-02-18T15:09:27;102382.38;;;12.60;100.00
70370;BME280;57790;51.356;-2.906;2023-02-18T15:12:28;102383.94;;;12.63;100.00
70370;BME280;57790;51.356;-2.906;2023-02-18T15:15:29;102390.09;;;12.63;100.00
70370;BME280;57790;51.356;-2.906;2023-02-18T15:18:43;102386.13;;;12.58;100.00
70370;BME280;57790;51.356;-2.906;2023-02-18T15:21:49;102388.69;;;12.59;100.00
70370;BME280;57790;51.356;-2.906;2023-02-18T15:24:53;102388.94;;;12.56;100.00
70370;BME280;57790;51.356;-2.906;2023-02-18T15:27:54;102385.28;;;12.57;100.00
70370;BME280;57790;51.356;-2.906;2023-02-18T15:30:59;102394.72;;;12.61;100.00
70370;BME280;57790;51.356;-2.906;2023-02-18T15:33:59;102388.69;;;12.59;100.00
70370;BME280;57790;51.356;-2.906;2023-02-18T15:37:01;102386.72;;;12.61;100.00
70370;BME280;57790;51.356;-2.906;2023-02-18T15:40:02;102384.59;;;12.55;100.00
70370;BME280;57790;51.356;-2.906;2023-02-18T15:43:05;102391.59;;;12.56;100.00
70370;BME280;57790;51.356;-2.906;2023-02-18T15:46:13;102391.44;;;12.58;100.00
70370;BME280;57790;51.356;-2.906;2023-02-18T15:49:14;102394.97;;;12.58;100.00
70370;BME280;57790;51.356;-2.906;2023-02-18T15:52:33;102391.59;;;12.56;100.00
70370;BME280;57790;51.356;-2.906;2023-02-18T15:55:39;102393.41;;;12.56;100.00
70370;BME280;57790;51.356;-2.906;2023-02-18T15:58:40;102391.72;;;12.55;100.00
70370;BME280;57790;51.356;-2.906;2023-02-18T16:01:41;102404.47;;;12.51;100.00
70370;BME280;57790;51.356;-2.906;2023-02-18T16:04:47;102399.97;;;12.51;100.00
70370;BME280;57790;51.356;-2.906;2023-02-18T16:07:57;102405.44;;;12.50;100.00
70370;BME280;57790;51.356;-2.906;2023-02-18T16:11:07;102405.44;;;12.50;100.00
70370;BME280;57790;51.356;-2.906;2023-02-18T16:17:28;102411.59;;;12.50;100.00
70370;BME280;57790;51.356;-2.906;2023-02-18T16:20:33;102426.72;;;12.50;100.00
70370;BME280;57790;51.356;-2.906;2023-02-18T16:23:41;102402.47;;;12.43;100.00
70370;BME280;57790;51.356;-2.906;2023-02-18T16:26:45;102401.50;;;12.44;100.00
70370;BME280;57790;51.356;-2.906;2023-02-18T16:29:49;102400.41;;;12.47;100.00
70370;BME280;57790;51.356;-2.906;2023-02-18T16:32:53;102399.69;;;12.45;100.00
70370;BME280;57790;51.356;-2.906;2023-02-18T16:35:53;102396.19;;;12.44;100.00
70370;BME280;57790;51.356;-2.906;2023-02-18T16:38:56;102404.56;;;12.40;100.00
70370;BME280;57790;51.356;-2.906;2023-02-18T16:41:57;102402.88;;;12.39;100.00
70370;BME280;57790;51.356;-2.906;2023-02-18T16:44:58;102407.63;;;12.35;100.00
70370;BME280;57790;51.356;-2.906;2023-02-18T16:47:59;102399.38;;;12.38;100.00
70370;BME280;57790;51.356;-2.906;2023-02-18T16:51:02;102397.97;;;12.34;100.00
70370;BME280;57790;51.356;-2.906;2023-02-18T16:54:04;102392.78;;;12.33;100.00
70370;BME280;57790;51.356;-2.906;2023-02-18T16:57:04;102408.59;;;12.34;100.00
70370;BME280;57790;51.356;-2.906;2023-02-18T17:00:05;102394.72;;;12.31;100.00
70370;BME280;57790;51.356;-2.906;2023-02-18T17:03:06;102392.78;;;12.33;100.00
70370;BME280;57790;51.356;-2.906;2023-02-18T17:06:06;102390.13;;;12.33;100.00
70370;BME280;57790;51.356;-2.906;2023-02-18T17:09:24;102394.00;;;12.29;100.00
70370;BME280;57790;51.356;-2.906;2023-02-18T17:12:26;102394.47;;;12.34;100.00
70370;BME280;57790;51.356;-2.906;2023-02-18T17:15:33;102387.84;;;12.28;100.00
70370;BME280;57790;51.356;-2.906;2023-02-18T17:18:34;102392.44;;;12.26;100.00
70370;BME280;57790;51.356;-2.906;2023-02-18T17:21:34;102391.34;;;12.29;100.00
70370;BME280;57790;51.356;-2.906;2023-02-18T17:24:35;102403.09;;;12.26;100.00
70370;BME280;57790;51.356;-2.906;2023-02-18T17:27:35;102409.38;;;12.25;100.00
70370;BME280;57790;51.356;-2.906;2023-02-18T17:30:38;102415.69;;;12.24;100.00
70370;BME280;57790;51.356;-2.906;2023-02-18T17:33:39;102406.84;;;12.24;100.00
70370;BME280;57790;51.356;-2.906;2023-02-18T17:36:40;102400.97;;;12.20;100.00
70370;BME280;57790;51.356;-2.906;2023-02-18T17:39:44;102396.50;;;12.20;100.00
70370;BME280;57790;51.356;-2.906;2023-02-18T17:42:44;102404.34;;;12.22;100.00
70370;BME280;57790;51.356;-2.906;2023-02-18T17:45:52;102405.44;;;12.19;100.00
70370;BME280;57790;51.356;-2.906;2023-02-18T17:48:53;102407.13;;;12.20;100.00
70370;BME280;57790;51.356;-2.906;2023-02-18T17:51:53;102397.47;;;12.19;100.00
70370;BME280;57790;51.356;-2.906;2023-02-18T17:54:54;102402.06;;;12.17;100.00
70370;BME280;57790;51.356;-2.906;2023-02-18T17:57:55;102412.84;;;12.16;100.00
70370;BME280;57790;51.356;-2.906;2023-02-18T18:00:56;102424.44;;;12.15;100.00
70370;BME280;57790;51.356;-2.906;2023-02-18T18:03:56;102426.25;;;12.14;100.00
70370;BME280;57790;51.356;-2.906;2023-02-18T18:06:57;102438.13;;;12.10;100.00
70370;BME280;57790;51.356;-2.906;2023-02-18T18:09:57;102434.50;;;12.11;100.00